createdAt,value
2024-02-29T00:00:45.637Z,98720.00
2024-02-29T00:01:47.480Z,98731.84
2024-02-29T00:02:49.083Z,98723.63
2024-02-29T00:03:51.066Z,98713.38
2024-02-29T00:04:52.589Z,98713.19
2024-02-29T00:05:55.226Z,98713.28
2024-02-29T00:06:56.869Z,98715.78
2024-02-29T00:07:58.432Z,98710.25
2024-02-29T00:09:00.058Z,98715.44
2024-02-29T00:10:01.680Z,98704.97
2024-02-29T00:11:03.809Z,98708.78
2024-02-29T00:12:06.231Z,98710.91
2024-02-29T00:13:07.815Z,98709.31
2024-02-29T00:14:09.918Z,98706.56
2024-02-29T00:15:12.046Z,98684.06
2024-02-29T00:16:14.702Z,98698.16
2024-02-29T00:17:16.770Z,98696.78
2024-02-29T00:18:18.285Z,98686.38
2024-02-29T00:19:21.131Z,98695.22
2024-02-29T00:20:22.678Z,98689.75
2024-02-29T00:21:24.471Z,98694.94
2024-02-29T00:22:26.017Z,98700.75
2024-02-29T00:23:27.516Z,98690.31
2024-02-29T00:24:29.578Z,98695.03
2024-02-29T00:25:31.271Z,98683.69
2024-02-29T00:26:32.767Z,98686.44
2024-02-29T00:27:34.471Z,98680.00
2024-02-29T00:28:36.081Z,98692.19
2024-02-29T00:29:39.751Z,98688.03
2024-02-29T00:30:41.328Z,98688.94
2024-02-29T00:31:44.719Z,98683.59
2024-02-29T00:32:47.527Z,98686.56
2024-02-29T00:33:49.156Z,98681.56
2024-02-29T00:34:51.139Z,98678.88
2024-02-29T00:36:02.215Z,98681.38
2024-02-29T00:37:06.622Z,98687.56
2024-02-29T00:38:08.176Z,98649.38
2024-02-29T00:39:14.830Z,98666.41
2024-02-29T00:40:17.383Z,98676.41
2024-02-29T00:41:19.016Z,98669.84
2024-02-29T00:42:20.531Z,98672.72
2024-02-29T00:43:22.014Z,98653.97
2024-02-29T00:44:23.522Z,98677.50
2024-02-29T00:45:25.112Z,98667.34
2024-02-29T00:46:26.611Z,98667.63
2024-02-29T00:47:28.147Z,98655.63
2024-02-29T00:48:29.781Z,98673.44
2024-02-29T00:49:32.110Z,98668.09
2024-02-29T00:50:34.144Z,98668.38
2024-02-29T00:51:35.793Z,98653.72
2024-02-29T00:52:39.138Z,98665.44
2024-02-29T00:53:40.777Z,98667.25
2024-02-29T00:54:42.920Z,98664.88
2024-02-29T00:55:44.787Z,98659.25
2024-02-29T00:56:46.415Z,98640.81
2024-02-29T00:57:50.933Z,98642.53
2024-02-29T00:58:52.523Z,98647.81
2024-02-29T00:59:54.392Z,98646.06
2024-02-29T01:00:56.088Z,98642.25
2024-02-29T01:01:57.950Z,98645.50
2024-02-29T01:02:59.521Z,98627.69
2024-02-29T01:04:01.138Z,98645.75
2024-02-29T01:05:03.014Z,98650.56
2024-02-29T01:06:05.628Z,98642.38
2024-02-29T01:07:07.757Z,98634.72
2024-02-29T01:08:09.655Z,98627.69
2024-02-29T01:09:11.186Z,98631.94
2024-02-29T01:10:16.110Z,98626.97
2024-02-29T01:11:17.742Z,98635.34
2024-02-29T01:12:19.450Z,98641.53
2024-02-29T01:13:20.995Z,98633.97
2024-02-29T01:14:22.565Z,98632.38
2024-02-29T01:15:24.488Z,98628.81
2024-02-29T01:16:26.234Z,98631.13
2024-02-29T01:17:27.792Z,98637.19
2024-02-29T01:18:29.356Z,98638.13
2024-02-29T01:19:30.877Z,98631.66
2024-02-29T01:20:34.063Z,98617.81
2024-02-29T01:21:35.590Z,98634.44
2024-02-29T01:22:37.115Z,98615.91
2024-02-29T01:23:38.651Z,98633.59
2024-02-29T01:24:40.164Z,98634.97
2024-02-29T01:25:41.886Z,98630.75
2024-02-29T01:26:43.460Z,98626.13
2024-02-29T01:27:45.035Z,98627.44
2024-02-29T01:28:46.533Z,98614.31
2024-02-29T01:29:48.091Z,98630.72
2024-02-29T01:30:50.507Z,98620.22
2024-02-29T01:31:52.152Z,98636.91
2024-02-29T01:32:53.776Z,98628.28
2024-02-29T01:33:55.416Z,98637.03
2024-02-29T01:34:57.144Z,98631.66
2024-02-29T01:35:58.765Z,98632.13
2024-02-29T01:37:00.290Z,98617.09
2024-02-29T01:38:01.828Z,98640.22
2024-02-29T01:39:04.162Z,98634.78
2024-02-29T01:40:06.635Z,98635.69
2024-02-29T01:41:08.487Z,98635.16
2024-02-29T01:42:11.318Z,98633.50
2024-02-29T01:43:12.916Z,98619.47
2024-02-29T01:44:14.457Z,98624.19
2024-02-29T01:45:18.152Z,98626.78
2024-02-29T01:46:19.842Z,98621.53
2024-02-29T01:47:24.935Z,98618.56
2024-02-29T01:48:26.566Z,98623.72
2024-02-29T01:49:28.750Z,98632.75
2024-02-29T01:50:30.777Z,98631.94
2024-02-29T01:51:32.522Z,98622.41
2024-02-29T01:52:35.306Z,98622.34
2024-02-29T01:53:36.860Z,98619.50
2024-02-29T01:54:40.166Z,98616.88
2024-02-29T01:55:42.149Z,98616.69
2024-02-29T01:56:43.825Z,98617.16
2024-02-29T01:57:45.430Z,98601.47
2024-02-29T01:58:47.090Z,98621.94
2024-02-29T01:59:50.111Z,98608.13
2024-02-29T02:00:52.814Z,98609.69
2024-02-29T02:01:54.487Z,98594.88
2024-02-29T02:02:56.762Z,98608.19
2024-02-29T02:03:58.395Z,98596.13
2024-02-29T02:04:59.984Z,98621.88
2024-02-29T02:06:01.955Z,98606.72
2024-02-29T02:07:04.726Z,98611.72
2024-02-29T02:08:06.681Z,98606.06
2024-02-29T02:09:08.260Z,98612.25
2024-02-29T02:10:12.914Z,98609.66
2024-02-29T02:11:14.853Z,98594.25
2024-02-29T02:12:16.446Z,98576.25
2024-02-29T02:13:17.978Z,98603.09
2024-02-29T02:14:20.189Z,98595.69
2024-02-29T02:15:22.412Z,98596.16
2024-02-29T02:16:23.961Z,98600.22
2024-02-29T02:17:25.451Z,98589.31
2024-02-29T02:18:27.077Z,98592.47
2024-02-29T02:19:28.609Z,98603.25
2024-02-29T02:20:30.506Z,98597.06
2024-02-29T02:21:32.064Z,98589.66
2024-02-29T02:22:33.570Z,98586.22
2024-02-29T02:23:35.102Z,98604.66
2024-02-29T02:24:36.792Z,98590.72
2024-02-29T02:25:38.377Z,98591.47
2024-02-29T02:26:40.012Z,98589.78
2024-02-29T02:27:41.632Z,98591.28
2024-02-29T02:28:43.496Z,98582.69
2024-02-29T02:29:44.985Z,98591.97
2024-02-29T02:30:46.863Z,98592.16
2024-02-29T02:31:48.407Z,98581.66
2024-02-29T02:32:50.039Z,98565.97
2024-02-29T02:33:51.577Z,98587.00
2024-02-29T02:34:53.079Z,98577.97
2024-02-29T02:35:54.622Z,98581.91
2024-02-29T02:36:56.126Z,98581.91
2024-02-29T02:37:57.637Z,98581.56
2024-02-29T02:38:59.252Z,98582.59
2024-02-29T02:40:01.074Z,98582.16
2024-02-29T02:41:03.064Z,98569.00
2024-02-29T02:42:04.909Z,98577.75
2024-02-29T02:43:06.762Z,98569.47
2024-02-29T02:44:08.299Z,98571.13
2024-02-29T02:45:10.131Z,98557.91
2024-02-29T02:46:12.568Z,98569.94
2024-02-29T02:47:14.133Z,98571.16
2024-02-29T02:48:15.630Z,98565.81
2024-02-29T02:49:17.281Z,98577.16
2024-02-29T02:50:18.819Z,98570.13
2024-02-29T02:51:20.356Z,98565.41
2024-02-29T02:52:22.047Z,98558.81
2024-02-29T02:53:23.616Z,98555.72
2024-02-29T02:54:25.133Z,98555.78
2024-02-29T02:55:27.119Z,98542.75
2024-02-29T02:56:28.632Z,98550.19
2024-02-29T02:57:30.282Z,98550.63
2024-02-29T02:58:31.828Z,98557.47
2024-02-29T02:59:33.417Z,98547.31
2024-02-29T03:00:35.367Z,98549.00
2024-02-29T03:01:37.816Z,98551.94
2024-02-29T03:02:41.185Z,98536.88
2024-02-29T03:03:42.807Z,98541.59
2024-02-29T03:04:44.324Z,98547.97
2024-02-29T03:05:46.182Z,98531.63
2024-02-29T03:06:48.304Z,98547.75
2024-02-29T03:07:50.518Z,98547.56
2024-02-29T03:08:52.765Z,98535.56
2024-02-29T03:09:54.479Z,98537.41
2024-02-29T03:10:56.364Z,98539.94
2024-02-29T03:11:57.864Z,98530.84
2024-02-29T03:12:59.397Z,98541.22
2024-02-29T03:14:01.288Z,98534.19
2024-02-29T03:15:02.802Z,98534.25
2024-02-29T03:16:05.100Z,98551.00
2024-02-29T03:17:06.643Z,98539.44
2024-02-29T03:18:08.914Z,98541.53
2024-02-29T03:19:10.650Z,98550.59
2024-02-29T03:20:14.419Z,98546.72
2024-02-29T03:21:16.667Z,98547.47
2024-02-29T03:22:18.216Z,98554.44
2024-02-29T03:23:21.294Z,98540.41
2024-02-29T03:24:22.767Z,98545.63
2024-02-29T03:25:24.183Z,98544.84
2024-02-29T03:26:26.306Z,98544.06
2024-02-29T03:27:27.828Z,98537.75
2024-02-29T03:28:29.345Z,98542.47
2024-02-29T03:29:32.760Z,98554.16
2024-02-29T03:30:34.361Z,98530.00
2024-02-29T03:31:36.579Z,98535.16
2024-02-29T03:32:38.165Z,98542.38
2024-02-29T03:33:39.802Z,98535.03
2024-02-29T03:34:41.448Z,98539.25
2024-02-29T03:35:42.932Z,98540.91
2024-02-29T03:36:44.538Z,98535.34
2024-02-29T03:37:46.051Z,98531.34
2024-02-29T03:38:48.269Z,98540.47
2024-02-29T03:39:49.894Z,98528.72
2024-02-29T03:40:52.963Z,98531.84
2024-02-29T03:41:54.759Z,98529.53
2024-02-29T03:42:56.291Z,98532.00
2024-02-29T03:43:57.838Z,98530.53
2024-02-29T03:44:59.340Z,98524.66
2024-02-29T03:46:00.866Z,98532.69
2024-02-29T03:47:02.393Z,98527.16
2024-02-29T03:48:04.106Z,98535.59
2024-02-29T03:49:05.754Z,98531.47
2024-02-29T03:50:07.683Z,98522.78
2024-02-29T03:51:09.997Z,98523.63
2024-02-29T03:52:11.730Z,98504.22
2024-02-29T03:53:13.375Z,98517.03
2024-02-29T03:54:14.914Z,98515.81
2024-02-29T03:55:16.501Z,98515.22
2024-02-29T03:56:18.617Z,98522.03
2024-02-29T03:57:20.178Z,98519.53
2024-02-29T03:58:21.760Z,98517.50
2024-02-29T03:59:23.292Z,98523.50
2024-02-29T04:00:24.804Z,98518.78
2024-02-29T04:01:26.840Z,98504.28
2024-02-29T04:02:29.165Z,98510.72
2024-02-29T04:03:30.786Z,98513.81
2024-02-29T04:04:32.352Z,98510.19
2024-02-29T04:05:33.867Z,98516.97
2024-02-29T04:06:35.471Z,98507.50
2024-02-29T04:07:41.899Z,98517.59
2024-02-29T04:08:43.423Z,98505.63
2024-02-29T04:09:44.940Z,98521.28
2024-02-29T04:10:49.770Z,98511.00
2024-02-29T04:11:52.086Z,98498.19
2024-02-29T04:12:53.608Z,98508.31
2024-02-29T04:13:55.819Z,98513.47
2024-02-29T04:14:57.695Z,98513.69
2024-02-29T04:15:59.211Z,98501.06
2024-02-29T04:17:02.045Z,98494.41
2024-02-29T04:18:05.195Z,98512.81
2024-02-29T04:19:07.097Z,98505.19
2024-02-29T04:20:09.899Z,98501.25
2024-02-29T04:21:11.623Z,98505.97
2024-02-29T04:22:15.810Z,98502.72
2024-02-29T04:23:17.530Z,98500.28
2024-02-29T04:24:19.270Z,98499.84
2024-02-29T04:25:24.010Z,98502.72
2024-02-29T04:26:25.568Z,98495.69
2024-02-29T04:27:27.125Z,98485.91
2024-02-29T04:28:28.661Z,98486.19
2024-02-29T04:29:30.357Z,98501.44
2024-02-29T04:30:33.102Z,98496.81
2024-02-29T04:31:34.710Z,98499.09
2024-02-29T04:32:39.376Z,98491.06
2024-02-29T04:33:41.642Z,98493.75
2024-02-29T04:34:43.261Z,98479.16
2024-02-29T04:35:44.798Z,98494.47
2024-02-29T04:36:46.317Z,98502.06
2024-02-29T04:37:48.914Z,98491.97
2024-02-29T04:38:51.237Z,98479.38
2024-02-29T04:39:52.877Z,98484.13
2024-02-29T04:40:55.826Z,98488.94
2024-02-29T04:41:57.459Z,98487.72
2024-02-29T04:42:59.461Z,98491.03
2024-02-29T04:44:01.084Z,98480.25
2024-02-29T04:45:02.759Z,98484.13
2024-02-29T04:46:04.467Z,98490.72
2024-02-29T04:47:07.940Z,98494.47
2024-02-29T04:48:09.538Z,98488.66
2024-02-29T04:49:11.200Z,98491.53
2024-02-29T04:50:12.778Z,98494.09
2024-02-29T04:51:14.264Z,98493.25
2024-02-29T04:52:16.118Z,98485.34
2024-02-29T04:53:17.773Z,98490.38
2024-02-29T04:54:19.564Z,98500.84
2024-02-29T04:55:21.158Z,98494.91
2024-02-29T04:56:22.813Z,98492.84
2024-02-29T04:57:24.682Z,98490.97
2024-02-29T04:58:26.154Z,98482.53
2024-02-29T04:59:28.158Z,98486.88
2024-02-29T05:00:29.673Z,98485.78
2024-02-29T05:01:31.400Z,98483.97
2024-02-29T05:02:34.851Z,98475.06
2024-02-29T05:03:36.483Z,98484.59
2024-02-29T05:04:38.639Z,98482.53
2024-02-29T05:05:40.132Z,98483.41
2024-02-29T05:06:41.634Z,98482.59
2024-02-29T05:07:45.349Z,98481.34
2024-02-29T05:08:46.870Z,98483.81
2024-02-29T05:09:48.415Z,98472.00
2024-02-29T05:10:49.985Z,98480.31
2024-02-29T05:11:51.556Z,98483.00
2024-02-29T05:12:54.941Z,98478.47
2024-02-29T05:13:57.200Z,98485.47
2024-02-29T05:14:58.924Z,98479.69
2024-02-29T05:16:00.427Z,98484.25
2024-02-29T05:17:02.092Z,98469.59
2024-02-29T05:18:04.556Z,98478.47
2024-02-29T05:19:06.090Z,98480.50
2024-02-29T05:20:08.084Z,98467.53
2024-02-29T05:21:09.616Z,98485.31
2024-02-29T05:22:11.187Z,98476.84
2024-02-29T05:23:13.160Z,98490.31
2024-02-29T05:24:14.678Z,98481.00
2024-02-29T05:25:16.402Z,98478.13
2024-02-29T05:26:18.776Z,98478.13
2024-02-29T05:27:20.321Z,98459.94
2024-02-29T05:28:21.943Z,98475.44
2024-02-29T05:29:23.441Z,98473.38
2024-02-29T05:30:26.525Z,98478.97
2024-02-29T05:31:27.972Z,98472.25
2024-02-29T05:32:29.501Z,98473.66
2024-02-29T05:33:31.545Z,98474.84
2024-02-29T05:34:33.097Z,98470.31
2024-02-29T05:35:35.068Z,98472.38
2024-02-29T05:36:36.587Z,98472.38
2024-02-29T05:37:38.124Z,98468.84
2024-02-29T05:38:40.123Z,98467.00
2024-02-29T05:39:41.859Z,98462.84
2024-02-29T05:40:43.631Z,98452.50
2024-02-29T05:41:45.215Z,98470.91
2024-02-29T05:42:46.944Z,98451.47
2024-02-29T05:43:49.064Z,98465.34
2024-02-29T05:44:50.842Z,98443.00
2024-02-29T05:45:52.593Z,98445.91
2024-02-29T05:46:54.195Z,98457.69
2024-02-29T05:47:55.730Z,98462.47
2024-02-29T05:48:58.940Z,98446.72
2024-02-29T05:50:00.514Z,98450.47
2024-02-29T05:51:03.332Z,98451.25
2024-02-29T05:52:05.110Z,98447.16
2024-02-29T05:53:06.756Z,98431.03
2024-02-29T05:54:08.671Z,98445.09
2024-02-29T05:55:10.518Z,98450.69
2024-02-29T05:56:14.752Z,98456.06
2024-02-29T05:57:16.273Z,98450.91
2024-02-29T05:58:19.383Z,98446.34
2024-02-29T05:59:21.091Z,98446.34
2024-02-29T06:00:25.389Z,98432.72
2024-02-29T06:01:26.976Z,98441.00
2024-02-29T06:02:28.877Z,98439.94
2024-02-29T06:03:30.366Z,98450.47
2024-02-29T06:04:31.880Z,98438.06
2024-02-29T06:05:33.486Z,98446.94
2024-02-29T06:06:35.608Z,98443.44
2024-02-29T06:07:37.912Z,98441.59
2024-02-29T06:08:39.894Z,98433.53
2024-02-29T06:09:42.891Z,98442.00
2024-02-29T06:10:47.884Z,98442.91
2024-02-29T06:11:49.641Z,98441.44
2024-02-29T06:12:51.219Z,98436.06
2024-02-29T06:13:53.108Z,98441.41
2024-02-29T06:14:54.601Z,98447.81
2024-02-29T06:15:56.430Z,98437.69
2024-02-29T06:16:58.014Z,98452.75
2024-02-29T06:17:59.556Z,98436.41
2024-02-29T06:19:01.232Z,98437.00
2024-02-29T06:20:05.004Z,98451.09
2024-02-29T06:21:06.508Z,98449.03
2024-02-29T06:22:08.299Z,98448.84
2024-02-29T06:23:09.834Z,98453.78
2024-02-29T06:24:11.727Z,98454.00
2024-02-29T06:25:13.390Z,98449.97
2024-02-29T06:26:15.429Z,98437.84
2024-02-29T06:27:18.337Z,98445.88
2024-02-29T06:28:24.100Z,98451.72
2024-02-29T06:29:26.462Z,98439.34
2024-02-29T06:30:33.461Z,98423.41
2024-02-29T06:31:35.367Z,98435.91
2024-02-29T06:32:36.979Z,98443.84
2024-02-29T06:33:38.571Z,98423.63
2024-02-29T06:34:40.152Z,98425.28
2024-02-29T06:35:42.175Z,98434.41
2024-02-29T06:36:44.103Z,98430.28
2024-02-29T06:37:45.705Z,98446.38
2024-02-29T06:38:47.189Z,98431.94
2024-02-29T06:39:49.041Z,98445.78
2024-02-29T06:40:50.585Z,98440.66
2024-02-29T06:41:52.108Z,98440.00
2024-02-29T06:42:53.819Z,98430.94
2024-02-29T06:43:55.391Z,98442.28
2024-02-29T06:44:57.104Z,98434.84
2024-02-29T06:46:01.597Z,98425.78
2024-02-29T06:47:03.133Z,98427.22
2024-02-29T06:48:05.422Z,98431.97
2024-02-29T06:49:07.544Z,98431.53
2024-02-29T06:50:10.284Z,98429.47
2024-02-29T06:51:11.783Z,98432.41
2024-02-29T06:52:13.400Z,98419.19
2024-02-29T06:53:14.999Z,98432.59
2024-02-29T06:54:16.564Z,98423.28
2024-02-29T06:55:18.117Z,98431.56
2024-02-29T06:56:19.897Z,98433.84
2024-02-29T06:57:21.393Z,98425.34
2024-02-29T06:58:22.996Z,98422.25
2024-02-29T06:59:24.540Z,98415.03
2024-02-29T07:00:26.148Z,98415.63
2024-02-29T07:01:28.124Z,98420.81
2024-02-29T07:02:29.799Z,98418.53
2024-02-29T07:03:31.367Z,98417.31
2024-02-29T07:04:33.215Z,98423.69
2024-02-29T07:05:36.770Z,98419.97
2024-02-29T07:06:38.553Z,98413.16
2024-02-29T07:07:40.106Z,98415.84
2024-02-29T07:08:41.761Z,98422.22
2024-02-29T07:09:44.079Z,98422.88
2024-02-29T07:10:45.694Z,98416.66
2024-02-29T07:11:47.209Z,98432.16
2024-02-29T07:12:49.187Z,98425.16
2024-02-29T07:13:52.009Z,98400.16
2024-02-29T07:14:53.597Z,98410.72
2024-02-29T07:15:56.060Z,98417.50
2024-02-29T07:16:57.629Z,98414.41
2024-02-29T07:17:59.206Z,98416.34
2024-02-29T07:19:00.785Z,98418.69
2024-02-29T07:20:02.640Z,98403.84
2024-02-29T07:21:05.476Z,98394.19
2024-02-29T07:22:07.099Z,98407.56
2024-02-29T07:23:11.009Z,98418.22
2024-02-29T07:24:12.521Z,98408.81
2024-02-29T07:25:14.315Z,98407.81
2024-02-29T07:26:15.889Z,98408.41
2024-02-29T07:27:17.412Z,98399.13
2024-02-29T07:28:18.966Z,98404.47
2024-02-29T07:29:20.737Z,98398.47
2024-02-29T07:30:22.654Z,98401.72
2024-02-29T07:31:24.626Z,98403.44
2024-02-29T07:32:28.579Z,98397.63
2024-02-29T07:33:32.344Z,98389.63
2024-02-29T07:34:35.399Z,98395.41
2024-02-29T07:35:37.131Z,98405.69
2024-02-29T07:36:38.704Z,98400.78
2024-02-29T07:37:40.791Z,98402.84
2024-02-29T07:38:43.011Z,98395.16
2024-02-29T07:39:44.539Z,98407.91
2024-02-29T07:40:46.595Z,98407.16
2024-02-29T07:41:48.407Z,98398.50
2024-02-29T07:42:50.170Z,98396.81
2024-02-29T07:43:51.749Z,98403.19
2024-02-29T07:44:53.543Z,98392.22
2024-02-29T07:45:55.125Z,98401.00
2024-02-29T07:46:56.788Z,98393.13
2024-02-29T07:47:58.817Z,98396.25
2024-02-29T07:49:00.487Z,98400.13
2024-02-29T07:50:04.463Z,98406.50
2024-02-29T07:51:06.429Z,98396.28
2024-02-29T07:52:08.036Z,98399.63
2024-02-29T07:53:09.689Z,98391.16
2024-02-29T07:54:11.217Z,98391.94
2024-02-29T07:55:16.017Z,98401.88
2024-02-29T07:56:17.992Z,98395.19
2024-02-29T07:57:19.497Z,98398.06
2024-02-29T07:58:21.150Z,98398.09
2024-02-29T07:59:24.492Z,98388.19
2024-02-29T08:00:26.469Z,98397.22
2024-02-29T08:01:28.835Z,98391.72
2024-02-29T08:02:30.373Z,98389.53
2024-02-29T08:03:33.518Z,98391.31
2024-02-29T08:04:35.236Z,98384.38
2024-02-29T08:05:36.851Z,98395.75
2024-02-29T08:06:38.364Z,98399.59
2024-02-29T08:07:40.350Z,98391.88
2024-02-29T08:08:42.591Z,98375.66
2024-02-29T08:09:44.386Z,98385.47
2024-02-29T08:10:46.281Z,98361.84
2024-02-29T08:11:48.267Z,98382.44
2024-02-29T08:12:49.897Z,98384.19
2024-02-29T08:13:51.430Z,98379.91
2024-02-29T08:14:53.028Z,98381.97
2024-02-29T08:15:55.022Z,98382.97
2024-02-29T08:16:56.577Z,98376.97
2024-02-29T08:17:59.255Z,98370.41
2024-02-29T08:19:00.916Z,98377.03
2024-02-29T08:20:02.889Z,98378.88
2024-02-29T08:21:05.242Z,98349.94
2024-02-29T08:22:06.846Z,98373.84
2024-02-29T08:23:08.396Z,98373.25
2024-02-29T08:24:09.893Z,98365.47
2024-02-29T08:25:11.731Z,98373.69
2024-02-29T08:26:13.382Z,98367.09
2024-02-29T08:27:14.973Z,98369.50
2024-02-29T08:28:16.954Z,98364.00
2024-02-29T08:29:19.261Z,98367.22
2024-02-29T08:30:20.790Z,98363.94
2024-02-29T08:31:22.425Z,98368.63
2024-02-29T08:32:24.044Z,98360.88
2024-02-29T08:33:25.561Z,98369.78
2024-02-29T08:34:27.168Z,98341.91
2024-02-29T08:35:28.814Z,98353.53
2024-02-29T08:36:30.716Z,98364.47
2024-02-29T08:37:32.234Z,98348.06
2024-02-29T08:38:35.535Z,98368.03
2024-02-29T08:39:39.500Z,98359.31
2024-02-29T08:40:40.996Z,98365.34
2024-02-29T08:41:42.960Z,98346.09
2024-02-29T08:42:44.463Z,98361.88
2024-02-29T08:43:45.966Z,98352.50
2024-02-29T08:44:48.542Z,98355.53
2024-02-29T08:45:51.089Z,98347.72
2024-02-29T08:46:53.292Z,98361.78
2024-02-29T08:47:54.864Z,98360.66
2024-02-29T08:48:56.422Z,98348.34
2024-02-29T08:49:57.987Z,98345.38
2024-02-29T08:50:59.497Z,98355.56
2024-02-29T08:52:01.128Z,98355.50
2024-02-29T08:53:02.678Z,98353.34
2024-02-29T08:54:09.774Z,98353.41
2024-02-29T08:55:12.212Z,98351.16
2024-02-29T08:56:14.321Z,98344.50
2024-02-29T08:57:15.944Z,98344.28
2024-02-29T08:58:17.545Z,98344.53
2024-02-29T08:59:19.169Z,98330.00
2024-02-29T09:00:20.798Z,98334.66
2024-02-29T09:01:22.467Z,98341.91
2024-02-29T09:02:24.235Z,98340.34
2024-02-29T09:03:26.412Z,98347.31
2024-02-29T09:04:28.048Z,98349.78
2024-02-29T09:05:29.591Z,98338.38
2024-02-29T09:06:40.806Z,98346.59
2024-02-29T09:07:43.464Z,98340.03
2024-02-29T09:08:45.041Z,98341.09
2024-02-29T09:09:46.620Z,98346.72
2024-02-29T09:10:48.219Z,98351.31
2024-02-29T09:11:49.935Z,98340.31
2024-02-29T09:12:51.447Z,98347.78
2024-02-29T09:13:53.003Z,98328.28
2024-02-29T09:14:54.498Z,98347.50
2024-02-29T09:15:56.137Z,98327.84
2024-02-29T09:16:58.065Z,98330.38
2024-02-29T09:18:00.630Z,98339.59
2024-02-29T09:19:04.329Z,98322.97
2024-02-29T09:20:07.608Z,98325.59
2024-02-29T09:21:09.435Z,98329.50
2024-02-29T09:22:11.129Z,98323.28
2024-02-29T09:23:12.649Z,98329.00
2024-02-29T09:24:15.954Z,98317.63
2024-02-29T09:25:20.834Z,98303.47
2024-02-29T09:26:22.398Z,98315.06
2024-02-29T09:27:23.952Z,98316.03
2024-02-29T09:28:25.553Z,98310.53
2024-02-29T09:29:27.996Z,98311.31
2024-02-29T09:30:30.467Z,98301.53
2024-02-29T09:31:32.897Z,98288.78
2024-02-29T09:32:34.428Z,98305.63
2024-02-29T09:33:35.971Z,98296.28
2024-02-29T09:34:41.736Z,98305.63
2024-02-29T09:35:48.248Z,98304.81
2024-02-29T09:36:50.110Z,98302.59
2024-02-29T09:37:51.660Z,98296.47
2024-02-29T09:38:53.172Z,98282.28
2024-02-29T09:39:54.807Z,98291.47
2024-02-29T09:41:03.312Z,98295.94
2024-02-29T09:42:15.458Z,98297.28
2024-02-29T09:43:18.444Z,98302.66
2024-02-29T09:44:20.260Z,98280.97
2024-02-29T09:45:25.370Z,98279.50
2024-02-29T09:46:27.378Z,98288.97
2024-02-29T09:47:29.435Z,98278.91
2024-02-29T09:48:31.104Z,98287.09
2024-02-29T09:49:32.996Z,98294.44
2024-02-29T09:50:34.525Z,98285.44
2024-02-29T09:51:36.844Z,98288.84
2024-02-29T09:52:39.830Z,98280.19
2024-02-29T09:53:41.268Z,98289.91
2024-02-29T09:54:42.962Z,98285.84
2024-02-29T09:55:44.570Z,98276.06
2024-02-29T09:56:49.132Z,98284.22
2024-02-29T09:57:50.889Z,98277.66
2024-02-29T09:58:52.777Z,98282.47
2024-02-29T09:59:54.825Z,98276.81
2024-02-29T10:00:57.073Z,98275.75
2024-02-29T10:01:59.206Z,98276.59
2024-02-29T10:03:02.045Z,98281.25
2024-02-29T10:04:04.578Z,98270.03
2024-02-29T10:05:10.409Z,98275.47
2024-02-29T10:06:12.506Z,98270.03
2024-02-29T10:07:16.183Z,98255.38
2024-02-29T10:08:18.049Z,98260.75
2024-02-29T10:09:19.651Z,98266.25
2024-02-29T10:10:22.380Z,98261.41
2024-02-29T10:11:31.088Z,98238.03
2024-02-29T10:12:32.694Z,98257.88
2024-02-29T10:13:38.755Z,98253.16
2024-02-29T10:14:40.400Z,98257.53
2024-02-29T10:15:42.712Z,98235.38
2024-02-29T10:16:44.552Z,98233.19
2024-02-29T10:17:46.763Z,98238.16
2024-02-29T10:18:48.444Z,98244.97
2024-02-29T10:19:53.396Z,98242.81
2024-02-29T10:20:54.962Z,98231.22
2024-02-29T10:21:58.022Z,98230.28
2024-02-29T10:22:59.642Z,98235.97
2024-02-29T10:24:01.236Z,98240.22
2024-02-29T10:25:03.624Z,98228.50
2024-02-29T10:26:06.039Z,98232.19
2024-02-29T10:27:07.790Z,98229.03
2024-02-29T10:28:13.874Z,98225.25
2024-02-29T10:29:17.830Z,98200.50
2024-02-29T10:30:19.848Z,98227.47
2024-02-29T10:31:21.569Z,98234.03
2024-02-29T10:32:23.106Z,98219.84
2024-02-29T10:33:27.583Z,98213.44
2024-02-29T10:34:29.418Z,98227.91
2024-02-29T10:35:31.597Z,98217.59
2024-02-29T10:36:33.725Z,98223.59
2024-02-29T10:37:35.257Z,98207.44
2024-02-29T10:38:38.473Z,98210.91
2024-02-29T10:39:41.750Z,98213.53
2024-02-29T10:40:43.604Z,98211.16
2024-02-29T10:41:50.448Z,98205.47
2024-02-29T10:42:55.469Z,98202.84
2024-02-29T10:44:01.760Z,98209.91
2024-02-29T10:45:04.086Z,98213.19
2024-02-29T10:46:06.784Z,98215.28
2024-02-29T10:47:09.681Z,98201.38
2024-02-29T10:48:23.176Z,98203.28
2024-02-29T10:49:31.441Z,98186.28
2024-02-29T10:50:35.151Z,98197.78
2024-02-29T10:51:46.240Z,98189.56
2024-02-29T10:52:51.148Z,98188.44
2024-02-29T10:54:03.764Z,98195.41
2024-02-29T10:55:12.277Z,98187.06
2024-02-29T10:56:23.427Z,98207.31
2024-02-29T10:57:27.676Z,98198.50
2024-02-29T10:58:37.874Z,98189.16
2024-02-29T10:59:42.989Z,98188.94
2024-02-29T11:00:44.785Z,98190.31
2024-02-29T11:01:48.090Z,98188.69
2024-02-29T11:02:50.131Z,98181.25
2024-02-29T11:03:51.684Z,98178.25
2024-02-29T11:04:54.116Z,98180.47
2024-02-29T11:05:55.975Z,98185.16
2024-02-29T11:06:57.953Z,98179.28
2024-02-29T11:07:59.701Z,98167.25
2024-02-29T11:09:03.204Z,98170.91
2024-02-29T11:10:05.735Z,98160.19
2024-02-29T11:11:13.140Z,98143.06
2024-02-29T11:12:17.151Z,98154.44
2024-02-29T11:13:20.328Z,98158.03
2024-02-29T11:14:22.156Z,98146.13
2024-02-29T11:15:27.714Z,98156.75
2024-02-29T11:16:29.517Z,98160.03
2024-02-29T11:17:32.472Z,98133.69
2024-02-29T11:18:36.727Z,98150.00
2024-02-29T11:19:47.457Z,98148.84
2024-02-29T11:21:06.521Z,98137.66
2024-02-29T11:22:14.562Z,98141.28
2024-02-29T11:23:21.096Z,98131.16
2024-02-29T11:24:23.825Z,98138.13
2024-02-29T11:25:30.340Z,98133.75
2024-02-29T11:26:33.763Z,98133.28
2024-02-29T11:27:35.632Z,98128.81
2024-02-29T11:28:43.346Z,98135.19
2024-02-29T11:29:51.182Z,98118.16
2024-02-29T11:31:08.094Z,98124.13
2024-02-29T11:32:10.589Z,98116.97
2024-02-29T11:33:13.221Z,98113.81
2024-02-29T11:34:18.170Z,98109.03
2024-02-29T11:35:19.953Z,98128.59
2024-02-29T11:36:22.015Z,98116.72
2024-02-29T11:37:26.688Z,98112.38
2024-02-29T11:38:36.121Z,98105.78
2024-02-29T11:39:41.632Z,98094.28
2024-02-29T11:40:43.918Z,98118.72
2024-02-29T11:41:45.559Z,98111.69
2024-02-29T11:42:47.462Z,98103.00
2024-02-29T11:43:50.413Z,98104.31
2024-02-29T11:44:52.109Z,98104.00
2024-02-29T11:45:53.625Z,98074.75
2024-02-29T11:46:55.500Z,98088.84
2024-02-29T11:47:57.366Z,98085.75
2024-02-29T11:48:59.356Z,98100.78
2024-02-29T11:50:01.858Z,98096.91
2024-02-29T11:51:04.404Z,98091.63
2024-02-29T11:52:06.021Z,98090.50
2024-02-29T11:53:08.039Z,98085.66
2024-02-29T11:54:10.850Z,98091.25
2024-02-29T11:55:12.758Z,98085.50
2024-02-29T11:56:16.585Z,98080.00
2024-02-29T11:57:18.544Z,98073.31
2024-02-29T11:58:21.667Z,98078.47
2024-02-29T11:59:24.450Z,98078.06
2024-02-29T12:00:28.775Z,98072.63
2024-02-29T12:01:32.607Z,98077.38
2024-02-29T12:02:35.999Z,98078.59
2024-02-29T12:03:37.794Z,98072.97
2024-02-29T12:04:39.439Z,98066.06
2024-02-29T12:05:41.078Z,98078.28
2024-02-29T12:06:45.019Z,98067.16
2024-02-29T12:07:48.149Z,98052.69
2024-02-29T12:08:50.019Z,98050.59
2024-02-29T12:09:51.651Z,98054.44
2024-02-29T12:10:56.449Z,98040.22
2024-02-29T12:11:58.677Z,98052.59
2024-02-29T12:13:00.570Z,98044.59